sensor_id;sensor_type;location;lat;lon;timestamp;temperature;humidity
578;DHT22;275;48.492;9.214;2023-03-13T00:00:49;13.50;29.40
578;DHT22;275;48.492;9.214;2023-03-13T00:03:16;13.20;29.60
578;DHT22;275;48.492;9.214;2023-03-13T00:05:43;13.40;29.30
578;DHT22;275;48.492;9.214;2023-03-13T00:08:09;13.90;28.70
578;DHT22;275;48.492;9.214;2023-03-13T00:10:37;14.00;28.40
578;DHT22;275;48.492;9.214;2023-03-13T00:13:05;13.90;28.50
578;DHT22;275;48.492;9.214;2023-03-13T00:15:32;13.80;28.90
578;DHT22;275;48.492;9.214;2023-03-13T00:17:59;13.90;28.70
578;DHT22;275;48.492;9.214;2023-03-13T00:20:26;14.00;28.50
578;DHT22;275;48.492;9.214;2023-03-13T00:22:53;13.30;29.50
578;DHT22;275;48.492;9.214;2023-03-13T00:25:19;13.50;29.50
578;DHT22;275;48.492;9.214;2023-03-13T00:27:46;14.00;29.10
578;DHT22;275;48.492;9.214;2023-03-13T00:30:15;13.80;29.00
578;DHT22;275;48.492;9.214;2023-03-13T00:32:44;13.70;29.30
578;DHT22;275;48.492;9.214;2023-03-13T00:35:11;13.80;29.20
578;DHT22;275;48.492;9.214;2023-03-13T00:37:38;14.20;28.20
578;DHT22;275;48.492;9.214;2023-03-13T00:40:06;14.40;28.10
578;DHT22;275;48.492;9.214;2023-03-13T00:42:33;14.50;27.90
578;DHT22;275;48.492;9.214;2023-03-13T00:45:00;14.00;28.20
578;DHT22;275;48.492;9.214;2023-03-13T00:47:28;13.50;29.30
578;DHT22;275;48.492;9.214;2023-03-13T00:49:55;13.60;29.30
578;DHT22;275;48.492;9.214;2023-03-13T00:52:22;13.80;29.00
578;DHT22;275;48.492;9.214;2023-03-13T00:54:49;13.90;28.90
578;DHT22;275;48.492;9.214;2023-03-13T00:57:16;13.60;29.10
578;DHT22;275;48.492;9.214;2023-03-13T00:59:43;13.80;29.20
578;DHT22;275;48.492;9.214;2023-03-13T01:02:09;13.80;29.30
578;DHT22;275;48.492;9.214;2023-03-13T01:04:38;14.00;28.90
578;DHT22;275;48.492;9.214;2023-03-13T01:07:04;14.00;28.70
578;DHT22;275;48.492;9.214;2023-03-13T01:09:31;14.10;28.70
578;DHT22;275;48.492;9.214;2023-03-13T01:11:58;14.20;28.70
578;DHT22;275;48.492;9.214;2023-03-13T01:14:25;13.70;29.30
578;DHT22;275;48.492;9.214;2023-03-13T01:16:52;13.50;29.90
578;DHT22;275;48.492;9.214;2023-03-13T01:19:18;13.80;29.40
578;DHT22;275;48.492;9.214;2023-03-13T01:21:47;13.90;29.20
578;DHT22;275;48.492;9.214;2023-03-13T01:24:13;14.00;29.10
578;DHT22;275;48.492;9.214;2023-03-13T01:26:41;14.00;29.00
578;DHT22;275;48.492;9.214;2023-03-13T01:29:08;14.20;28.80
578;DHT22;275;48.492;9.214;2023-03-13T01:31:35;13.80;29.70
578;DHT22;275;48.492;9.214;2023-03-13T01:34:03;13.80;30.00
578;DHT22;275;48.492;9.214;2023-03-13T01:36:31;14.20;29.50
578;DHT22;275;48.492;9.214;2023-03-13T01:39:00;14.20;29.20
578;DHT22;275;48.492;9.214;2023-03-13T01:41:28;13.80;30.00
578;DHT22;275;48.492;9.214;2023-03-13T01:43:55;13.90;29.90
578;DHT22;275;48.492;9.214;2023-03-13T01:46:23;14.20;29.60
578;DHT22;275;48.492;9.214;2023-03-13T01:48:54;14.10;29.60
578;DHT22;275;48.492;9.214;2023-03-13T01:51:25;14.50;29.40
578;DHT22;275;48.492;9.214;2023-03-13T01:53:59;14.50;29.40
578;DHT22;275;48.492;9.214;2023-03-13T01:56:33;14.10;30.70
578;DHT22;275;48.492;9.214;2023-03-13T01:59:03;13.90;30.90
578;DHT22;275;48.492;9.214;2023-03-13T02:01:30;13.70;31.50
578;DHT22;275;48.492;9.214;2023-03-13T02:03:58;13.60;32.10
578;DHT22;275;48.492;9.214;2023-03-13T02:06:28;13.80;32.00
578;DHT22;275;48.492;9.214;2023-03-13T02:08:57;13.70;32.10
578;DHT22;275;48.492;9.214;2023-03-13T02:11:30;14.00;31.60
578;DHT22;275;48.492;9.214;2023-03-13T02:14:01;13.80;32.20
578;DHT22;275;48.492;9.214;2023-03-13T02:16:30;13.90;32.40
578;DHT22;275;48.492;9.214;2023-03-13T02:18:57;13.90;32.50
578;DHT22;275;48.492;9.214;2023-03-13T02:21:35;13.60;33.60
578;DHT22;275;48.492;9.214;2023-03-13T02:24:12;13.40;34.10
578;DHT22;275;48.492;9.214;2023-03-13T02:26:41;13.60;34.20
578;DHT22;275;48.492;9.214;2023-03-13T02:29:09;13.80;33.60
578;DHT22;275;48.492;9.214;2023-03-13T02:31:43;14.00;33.30
578;DHT22;275;48.492;9.214;2023-03-13T02:34:13;13.50;34.70
578;DHT22;275;48.492;9.214;2023-03-13T02:36:41;13.60;34.70
578;DHT22;275;48.492;9.214;2023-03-13T02:39:08;13.80;34.30
578;DHT22;275;48.492;9.214;2023-03-13T02:41:37;13.80;34.20
578;DHT22;275;48.492;9.214;2023-03-13T02:44:05;14.10;33.90
578;DHT22;275;48.492;9.214;2023-03-13T02:46:43;14.30;33.40
578;DHT22;275;48.492;9.214;2023-03-13T02:49:20;14.10;33.70
578;DHT22;275;48.492;9.214;2023-03-13T02:51:47;13.80;34.50
578;DHT22;275;48.492;9.214;2023-03-13T02:54:18;13.60;35.20
578;DHT22;275;48.492;9.214;2023-03-13T02:56:48;13.60;35.40
578;DHT22;275;48.492;9.214;2023-03-13T02:59:17;13.50;35.80
578;DHT22;275;48.492;9.214;2023-03-13T03:01:44;13.50;35.90
578;DHT22;275;48.492;9.214;2023-03-13T03:04:11;13.60;35.90
578;DHT22;275;48.492;9.214;2023-03-13T03:06:38;13.40;35.90
578;DHT22;275;48.492;9.214;2023-03-13T03:09:05;13.40;36.20
578;DHT22;275;48.492;9.214;2023-03-13T03:11:32;14.00;34.90
578;DHT22;275;48.492;9.214;2023-03-13T03:14:00;14.00;34.60
578;DHT22;275;48.492;9.214;2023-03-13T03:16:28;13.80;34.90
578;DHT22;275;48.492;9.214;2023-03-13T03:18:55;13.90;34.30
578;DHT22;275;48.492;9.214;2023-03-13T03:21:22;13.60;34.70
578;DHT22;275;48.492;9.214;2023-03-13T03:23:49;13.70;34.50
578;DHT22;275;48.492;9.214;2023-03-13T03:26:16;13.50;34.90
578;DHT22;275;48.492;9.214;2023-03-13T03:28:43;13.60;34.30
578;DHT22;275;48.492;9.214;2023-03-13T03:31:12;13.80;34.20
578;DHT22;275;48.492;9.214;2023-03-13T03:33:41;14.00;33.70
578;DHT22;275;48.492;9.214;2023-03-13T03:36:10;14.50;32.90
578;DHT22;275;48.492;9.214;2023-03-13T03:38:38;14.10;33.40
578;DHT22;275;48.492;9.214;2023-03-13T03:41:05;14.10;34.00
578;DHT22;275;48.492;9.214;2023-03-13T03:43:32;14.10;33.90
578;DHT22;275;48.492;9.214;2023-03-13T03:45:59;14.30;33.90
578;DHT22;275;48.492;9.214;2023-03-13T03:48:26;14.30;33.90
578;DHT22;275;48.492;9.214;2023-03-13T03:50:54;14.50;33.40
578;DHT22;275;48.492;9.214;2023-03-13T03:53:21;14.60;34.20
578;DHT22;275;48.492;9.214;2023-03-13T03:55:48;14.20;34.40
578;DHT22;275;48.492;9.214;2023-03-13T03:58:15;13.80;36.10
578;DHT22;275;48.492;9.214;2023-03-13T04:00:42;14.00;36.00
578;DHT22;275;48.492;9.214;2023-03-13T04:03:10;14.90;34.00
578;DHT22;275;48.492;9.214;2023-03-13T04:05:37;14.40;34.90
578;DHT22;275;48.492;9.214;2023-03-13T04:08:06;13.90;36.10
578;DHT22;275;48.492;9.214;2023-03-13T04:10:33;14.20;35.70
578;DHT22;275;48.492;9.214;2023-03-13T04:13:00;14.00;36.20
578;DHT22;275;48.492;9.214;2023-03-13T04:15:27;14.20;36.00
578;DHT22;275;48.492;9.214;2023-03-13T04:17:54;14.70;34.70
578;DHT22;275;48.492;9.214;2023-03-13T04:20:21;15.00;34.00
578;DHT22;275;48.492;9.214;2023-03-13T04:22:48;14.50;35.30
578;DHT22;275;48.492;9.214;2023-03-13T04:25:16;14.10;36.10
578;DHT22;275;48.492;9.214;2023-03-13T04:27:43;14.30;35.90
578;DHT22;275;48.492;9.214;2023-03-13T04:30:10;14.10;36.30
578;DHT22;275;48.492;9.214;2023-03-13T04:32:37;14.30;35.70
578;DHT22;275;48.492;9.214;2023-03-13T04:35:04;14.40;35.50
578;DHT22;275;48.492;9.214;2023-03-13T04:37:31;14.60;34.60
578;DHT22;275;48.492;9.214;2023-03-13T04:39:58;14.00;36.00
578;DHT22;275;48.492;9.214;2023-03-13T04:42:26;13.70;36.60
578;DHT22;275;48.492;9.214;2023-03-13T04:44:53;14.30;35.60
578;DHT22;275;48.492;9.214;2023-03-13T04:47:20;14.50;34.80
578;DHT22;275;48.492;9.214;2023-03-13T04:49:47;14.30;33.60
578;DHT22;275;48.492;9.214;2023-03-13T04:52:13;14.10;33.90
578;DHT22;275;48.492;9.214;2023-03-13T04:54:40;13.80;34.20
578;DHT22;275;48.492;9.214;2023-03-13T04:57:07;13.90;34.30
578;DHT22;275;48.492;9.214;2023-03-13T04:59:35;13.60;35.50
578;DHT22;275;48.492;9.214;2023-03-13T05:02:02;13.70;34.60
578;DHT22;275;48.492;9.214;2023-03-13T05:04:29;13.80;34.50
578;DHT22;275;48.492;9.214;2023-03-13T05:06:56;14.30;33.60
578;DHT22;275;48.492;9.214;2023-03-13T05:09:22;14.50;33.10
578;DHT22;275;48.492;9.214;2023-03-13T05:11:49;14.60;32.80
578;DHT22;275;48.492;9.214;2023-03-13T05:14:16;14.50;33.70
578;DHT22;275;48.492;9.214;2023-03-13T05:16:45;13.90;35.90
578;DHT22;275;48.492;9.214;2023-03-13T05:19:12;13.80;36.60
578;DHT22;275;48.492;9.214;2023-03-13T05:21:39;14.10;36.40
578;DHT22;275;48.492;9.214;2023-03-13T05:24:06;14.00;37.20
578;DHT22;275;48.492;9.214;2023-03-13T05:26:32;14.00;36.80
578;DHT22;275;48.492;9.214;2023-03-13T05:28:59;14.10;37.10
578;DHT22;275;48.492;9.214;2023-03-13T05:31:26;14.20;36.50
578;DHT22;275;48.492;9.214;2023-03-13T05:33:55;14.40;36.00
578;DHT22;275;48.492;9.214;2023-03-13T05:36:22;14.10;37.10
578;DHT22;275;48.492;9.214;2023-03-13T05:38:49;14.00;37.40
578;DHT22;275;48.492;9.214;2023-03-13T05:41:15;14.10;37.20
578;DHT22;275;48.492;9.214;2023-03-13T05:43:42;14.50;36.10
578;DHT22;275;48.492;9.214;2023-03-13T05:46:09;14.40;36.60
578;DHT22;275;48.492;9.214;2023-03-13T05:48:36;14.70;35.50
578;DHT22;275;48.492;9.214;2023-03-13T05:51:04;14.30;37.00
578;DHT22;275;48.492;9.214;2023-03-13T05:53:31;14.40;37.20
578;DHT22;275;48.492;9.214;2023-03-13T05:55:58;14.70;36.30
578;DHT22;275;48.492;9.214;2023-03-13T05:58:24;14.30;37.30
578;DHT22;275;48.492;9.214;2023-03-13T06:00:51;13.80;39.00
578;DHT22;275;48.492;9.214;2023-03-13T06:03:18;14.00;38.70
578;DHT22;275;48.492;9.214;2023-03-13T06:05:45;14.00;38.70
578;DHT22;275;48.492;9.214;2023-03-13T06:08:13;14.00;39.30
578;DHT22;275;48.492;9.214;2023-03-13T06:10:40;14.20;38.60
578;DHT22;275;48.492;9.214;2023-03-13T06:13:07;14.30;38.80
578;DHT22;275;48.492;9.214;2023-03-13T06:15:33;13.90;40.10
578;DHT22;275;48.492;9.214;2023-03-13T06:18:00;13.90;40.20
578;DHT22;275;48.492;9.214;2023-03-13T06:20:27;14.20;39.20
578;DHT22;275;48.492;9.214;2023-03-13T06:22:54;14.40;38.60
578;DHT22;275;48.492;9.214;2023-03-13T06:25:22;14.30;39.10
578;DHT22;275;48.492;9.214;2023-03-13T06:27:50;14.70;38.30
578;DHT22;275;48.492;9.214;2023-03-13T06:30:17;14.80;38.00
578;DHT22;275;48.492;9.214;2023-03-13T06:32:44;14.40;39.00
578;DHT22;275;48.492;9.214;2023-03-13T06:35:10;14.10;39.80
578;DHT22;275;48.492;9.214;2023-03-13T06:37:37;14.20;39.60
578;DHT22;275;48.492;9.214;2023-03-13T06:40:05;14.30;39.40
578;DHT22;275;48.492;9.214;2023-03-13T06:42:33;14.50;39.00
578;DHT22;275;48.492;9.214;2023-03-13T06:45:00;14.60;38.40
578;DHT22;275;48.492;9.214;2023-03-13T06:47:29;14.10;40.10
578;DHT22;275;48.492;9.214;2023-03-13T06:49:56;14.40;39.30
578;DHT22;275;48.492;9.214;2023-03-13T06:52:23;14.30;40.00
578;DHT22;275;48.492;9.214;2023-03-13T06:54:50;14.20;40.30
578;DHT22;275;48.492;9.214;2023-03-13T06:57:17;14.40;39.70
578;DHT22;275;48.492;9.214;2023-03-13T06:59:45;14.70;39.20
578;DHT22;275;48.492;9.214;2023-03-13T07:02:12;14.40;39.70
578;DHT22;275;48.492;9.214;2023-03-13T07:04:39;14.40;39.80
578;DHT22;275;48.492;9.214;2023-03-13T07:07:06;14.40;39.60
578;DHT22;275;48.492;9.214;2023-03-13T07:09:33;14.30;40.30
578;DHT22;275;48.492;9.214;2023-03-13T07:12:00;14.00;41.00
578;DHT22;275;48.492;9.214;2023-03-13T07:14:28;13.50;42.30
578;DHT22;275;48.492;9.214;2023-03-13T07:16:58;13.70;42.40
578;DHT22;275;48.492;9.214;2023-03-13T07:19:25;13.60;43.20
578;DHT22;275;48.492;9.214;2023-03-13T07:21:52;13.90;41.90
578;DHT22;275;48.492;9.214;2023-03-13T07:24:19;13.90;41.80
578;DHT22;275;48.492;9.214;2023-03-13T07:26:46;13.90;42.10
578;DHT22;275;48.492;9.214;2023-03-13T07:29:13;14.20;41.60
578;DHT22;275;48.492;9.214;2023-03-13T07:31:40;13.90;42.20
578;DHT22;275;48.492;9.214;2023-03-13T07:34:08;14.20;41.50
578;DHT22;275;48.492;9.214;2023-03-13T07:36:35;14.00;42.50
578;DHT22;275;48.492;9.214;2023-03-13T07:39:01;14.10;42.00
578;DHT22;275;48.492;9.214;2023-03-13T07:41:28;14.50;41.10
578;DHT22;275;48.492;9.214;2023-03-13T07:43:55;14.50;41.10
578;DHT22;275;48.492;9.214;2023-03-13T07:46:22;14.60;41.10
578;DHT22;275;48.492;9.214;2023-03-13T07:48:49;14.40;41.80
578;DHT22;275;48.492;9.214;2023-03-13T07:51:19;14.40;41.80
578;DHT22;275;48.492;9.214;2023-03-13T07:53:47;14.50;41.60
578;DHT22;275;48.492;9.214;2023-03-13T07:56:16;14.60;41.60
578;DHT22;275;48.492;9.214;2023-03-13T07:58:43;14.60;41.60
578;DHT22;275;48.492;9.214;2023-03-13T08:01:13;14.70;41.50
578;DHT22;275;48.492;9.214;2023-03-13T08:03:40;15.00;41.50
578;DHT22;275;48.492;9.214;2023-03-13T08:06:08;15.50;39.80
578;DHT22;275;48.492;9.214;2023-03-13T08:08:37;15.70;39.40
578;DHT22;275;48.492;9.214;2023-03-13T08:11:06;15.00;40.90
578;DHT22;275;48.492;9.214;2023-03-13T08:13:33;15.40;40.50
578;DHT22;275;48.492;9.214;2023-03-13T08:16:03;15.90;39.00
578;DHT22;275;48.492;9.214;2023-03-13T08:18:30;15.20;40.50
578;DHT22;275;48.492;9.214;2023-03-13T08:21:00;14.90;41.60
578;DHT22;275;48.492;9.214;2023-03-13T08:23:28;14.80;41.40
578;DHT22;275;48.492;9.214;2023-03-13T08:26:00;14.70;42.10
578;DHT22;275;48.492;9.214;2023-03-13T08:28:27;14.70;42.10
578;DHT22;275;48.492;9.214;2023-03-13T08:30:54;14.60;43.30
578;DHT22;275;48.492;9.214;2023-03-13T08:33:21;14.90;42.10
578;DHT22;275;48.492;9.214;2023-03-13T08:35:48;15.50;40.50
578;DHT22;275;48.492;9.214;2023-03-13T08:38:15;15.20;41.30
578;DHT22;275;48.492;9.214;2023-03-13T08:40:43;15.20;41.70
578;DHT22;275;48.492;9.214;2023-03-13T08:43:11;15.90;39.30
578;DHT22;275;48.492;9.214;2023-03-13T08:45:38;16.00;39.50
578;DHT22;275;48.492;9.214;2023-03-13T08:48:05;16.10;39.50
578;DHT22;275;48.492;9.214;2023-03-13T08:50:32;16.20;39.00
578;DHT22;275;48.492;9.214;2023-03-13T08:52:59;15.90;40.00
578;DHT22;275;48.492;9.214;2023-03-13T08:55:26;15.60;40.50
578;DHT22;275;48.492;9.214;2023-03-13T08:57:52;15.80;40.20
578;DHT22;275;48.492;9.214;2023-03-13T09:00:21;15.70;40.40
578;DHT22;275;48.492;9.214;2023-03-13T09:02:48;15.40;41.50
578;DHT22;275;48.492;9.214;2023-03-13T09:05:15;15.10;42.00
578;DHT22;275;48.492;9.214;2023-03-13T09:07:41;15.40;41.90
578;DHT22;275;48.492;9.214;2023-03-13T09:10:09;15.70;41.60
578;DHT22;275;48.492;9.214;2023-03-13T09:12:36;15.50;40.90
578;DHT22;275;48.492;9.214;2023-03-13T09:15:03;16.10;40.00
578;DHT22;275;48.492;9.214;2023-03-13T09:17:32;16.20;39.30
578;DHT22;275;48.492;9.214;2023-03-13T09:19:58;15.90;39.80
578;DHT22;275;48.492;9.214;2023-03-13T09:22:25;16.50;39.00
578;DHT22;275;48.492;9.214;2023-03-13T09:24:52;16.20;39.00
578;DHT22;275;48.492;9.214;2023-03-13T09:27:19;16.50;39.10
578;DHT22;275;48.492;9.214;2023-03-13T09:29:46;17.40;37.00
578;DHT22;275;48.492;9.214;2023-03-13T09:32:12;18.50;34.80
578;DHT22;275;48.492;9.214;2023-03-13T09:34:41;19.00;32.80
578;DHT22;275;48.492;9.214;2023-03-13T09:37:07;20.60;31.10
578;DHT22;275;48.492;9.214;2023-03-13T09:39:34;22.00;29.00
578;DHT22;275;48.492;9.214;2023-03-13T09:42:08;21.50;29.00
578;DHT22;275;48.492;9.214;2023-03-13T09:44:41;21.70;27.80
578;DHT22;275;48.492;9.214;2023-03-13T09:47:14;21.10;29.50
578;DHT22;275;48.492;9.214;2023-03-13T09:49:47;20.60;29.70
578;DHT22;275;48.492;9.214;2023-03-13T09:52:17;18.30;33.00
578;DHT22;275;48.492;9.214;2023-03-13T09:54:48;18.60;32.90
578;DHT22;275;48.492;9.214;2023-03-13T09:57:21;18.80;31.90
578;DHT22;275;48.492;9.214;2023-03-13T09:59:53;19.30;30.90
578;DHT22;275;48.492;9.214;2023-03-13T10:02:31;19.30;30.90
578;DHT22;275;48.492;9.214;2023-03-13T10:05:13;19.30;30.50
578;DHT22;275;48.492;9.214;2023-03-13T10:07:42;20.00;29.30
578;DHT22;275;48.492;9.214;2023-03-13T10:10:13;21.40;26.60
578;DHT22;275;48.492;9.214;2023-03-13T10:12:45;21.20;27.00
578;DHT22;275;48.492;9.214;2023-03-13T10:15:31;21.40;26.40
578;DHT22;275;48.492;9.214;2023-03-13T10:18:10;23.00;25.20
578;DHT22;275;48.492;9.214;2023-03-13T10:20:40;23.40;24.30
578;DHT22;275;48.492;9.214;2023-03-13T10:23:13;21.40;26.40
578;DHT22;275;48.492;9.214;2023-03-13T10:25:40;22.10;26.00
578;DHT22;275;48.492;9.214;2023-03-13T10:28:10;24.10;23.60
578;DHT22;275;48.492;9.214;2023-03-13T10:30:42;24.10;22.90
578;DHT22;275;48.492;9.214;2023-03-13T10:33:28;21.60;25.30
578;DHT22;275;48.492;9.214;2023-03-13T10:36:03;23.30;24.20
578;DHT22;275;48.492;9.214;2023-03-13T10:38:44;25.00;22.40
578;DHT22;275;48.492;9.214;2023-03-13T10:41:21;25.80;21.20
578;DHT22;275;48.492;9.214;2023-03-13T10:43:50;26.40;20.60
578;DHT22;275;48.492;9.214;2023-03-13T10:46:24;25.10;20.50
578;DHT22;275;48.492;9.214;2023-03-13T10:48:53;23.40;23.30
578;DHT22;275;48.492;9.214;2023-03-13T10:51:24;24.80;22.20
578;DHT22;275;48.492;9.214;2023-03-13T10:53:51;26.50;20.40
578;DHT22;275;48.492;9.214;2023-03-13T10:56:24;28.70;18.10
578;DHT22;275;48.492;9.214;2023-03-13T10:58:54;29.20;17.10
578;DHT22;275;48.492;9.214;2023-03-13T11:01:22;25.90;20.10
578;DHT22;275;48.492;9.214;2023-03-13T11:03:51;24.90;21.50
578;DHT22;275;48.492;9.214;2023-03-13T11:06:28;25.80;21.00
578;DHT22;275;48.492;9.214;2023-03-13T11:09:03;24.50;21.60
578;DHT22;275;48.492;9.214;2023-03-13T11:11:42;24.10;22.90
578;DHT22;275;48.492;9.214;2023-03-13T11:14:13;26.10;21.00
578;DHT22;275;48.492;9.214;2023-03-13T11:16:48;27.50;19.20
578;DHT22;275;48.492;9.214;2023-03-13T11:19:27;24.80;21.80
578;DHT22;275;48.492;9.214;2023-03-13T11:22:05;23.80;22.70
578;DHT22;275;48.492;9.214;2023-03-13T11:24:41;22.10;24.50
578;DHT22;275;48.492;9.214;2023-03-13T11:27:16;20.80;26.60
578;DHT22;275;48.492;9.214;2023-03-13T11:29:54;20.30;27.40
578;DHT22;275;48.492;9.214;2023-03-13T11:32:31;20.00;27.90
578;DHT22;275;48.492;9.214;2023-03-13T11:35:06;20.80;27.00
578;DHT22;275;48.492;9.214;2023-03-13T11:37:43;20.70;27.30
578;DHT22;275;48.492;9.214;2023-03-13T11:40:17;21.20;26.50
578;DHT22;275;48.492;9.214;2023-03-13T11:43:14;21.50;26.80
578;DHT22;275;48.492;9.214;2023-03-13T11:46:02;22.80;24.70
578;DHT22;275;48.492;9.214;2023-03-13T11:49:07;23.50;23.50
578;DHT22;275;48.492;9.214;2023-03-13T11:51:47;22.00;25.20
578;DHT22;275;48.492;9.214;2023-03-13T11:54:33;22.00;25.50
578;DHT22;275;48.492;9.214;2023-03-13T11:57:08;22.70;24.60
578;DHT22;275;48.492;9.214;2023-03-13T11:59:44;21.40;25.40
578;DHT22;275;48.492;9.214;2023-03-13T12:02:21;20.80;27.00
578;DHT22;275;48.492;9.214;2023-03-13T12:04:53;21.10;26.40
578;DHT22;275;48.492;9.214;2023-03-13T12:07:26;20.50;27.10
578;DHT22;275;48.492;9.214;2023-03-13T12:09:58;20.20;27.50
578;DHT22;275;48.492;9.214;2023-03-13T12:12:34;20.90;27.00
578;DHT22;275;48.492;9.214;2023-03-13T12:15:14;21.30;26.20
578;DHT22;275;48.492;9.214;2023-03-13T12:17:47;21.90;25.40
578;DHT22;275;48.492;9.214;2023-03-13T12:20:19;21.90;24.80
578;DHT22;275;48.492;9.214;2023-03-13T12:22:53;21.40;25.20
578;DHT22;275;48.492;9.214;2023-03-13T12:25:26;22.00;24.90
578;DHT22;275;48.492;9.214;2023-03-13T12:27:57;22.30;24.30
578;DHT22;275;48.492;9.214;2023-03-13T12:30:32;23.40;22.70
578;DHT22;275;48.492;9.214;2023-03-13T12:33:09;24.70;20.50
578;DHT22;275;48.492;9.214;2023-03-13T12:35:39;25.50;19.20
578;DHT22;275;48.492;9.214;2023-03-13T12:38:14;26.70;18.30
578;DHT22;275;48.492;9.214;2023-03-13T12:40:48;25.80;18.00
578;DHT22;275;48.492;9.214;2023-03-13T12:43:18;26.70;18.20
578;DHT22;275;48.492;9.214;2023-03-13T12:46:00;29.40;15.60
578;DHT22;275;48.492;9.214;2023-03-13T12:51:43;28.80;14.90
578;DHT22;275;48.492;9.214;2023-03-13T12:54:43;26.90;16.10
578;DHT22;275;48.492;9.214;2023-03-13T12:57:34;27.40;16.20
578;DHT22;275;48.492;9.214;2023-03-13T13:00:13;29.00;14.60
578;DHT22;275;48.492;9.214;2023-03-13T13:02:41;29.50;13.40
578;DHT22;275;48.492;9.214;2023-03-13T13:05:18;28.60;14.20
578;DHT22;275;48.492;9.214;2023-03-13T13:07:51;27.50;14.60
578;DHT22;275;48.492;9.214;2023-03-13T13:10:21;26.40;16.00
578;DHT22;275;48.492;9.214;2023-03-13T13:13:27;27.00;15.50
578;DHT22;275;48.492;9.214;2023-03-13T13:15:59;26.90;15.00
578;DHT22;275;48.492;9.214;2023-03-13T13:18:28;26.60;15.30
578;DHT22;275;48.492;9.214;2023-03-13T13:21:18;26.60;15.50
578;DHT22;275;48.492;9.214;2023-03-13T13:23:45;26.00;15.60
578;DHT22;275;48.492;9.214;2023-03-13T13:26:48;26.30;16.60
578;DHT22;275;48.492;9.214;2023-03-13T13:32:42;25.00;17.40
578;DHT22;275;48.492;9.214;2023-03-13T13:35:29;24.40;18.20
578;DHT22;275;48.492;9.214;2023-03-13T13:38:30;23.40;19.00
578;DHT22;275;48.492;9.214;2023-03-13T13:41:34;23.70;19.20
578;DHT22;275;48.492;9.214;2023-03-13T13:44:20;23.80;18.60
578;DHT22;275;48.492;9.214;2023-03-13T13:46:48;24.00;19.00
578;DHT22;275;48.492;9.214;2023-03-13T13:49:17;24.50;18.50
578;DHT22;275;48.492;9.214;2023-03-13T13:54:55;23.90;18.90
578;DHT22;275;48.492;9.214;2023-03-13T13:57:24;23.40;19.60
578;DHT22;275;48.492;9.214;2023-03-13T13:59:53;24.80;18.40
578;DHT22;275;48.492;9.214;2023-03-13T14:02:25;25.60;17.70
578;DHT22;275;48.492;9.214;2023-03-13T14:05:02;26.60;16.70
578;DHT22;275;48.492;9.214;2023-03-13T14:07:39;28.30;15.00
578;DHT22;275;48.492;9.214;2023-03-13T14:10:16;28.00;14.90
578;DHT22;275;48.492;9.214;2023-03-13T14:12:46;25.90;16.70
578;DHT22;275;48.492;9.214;2023-03-13T14:15:20;24.20;18.90
578;DHT22;275;48.492;9.214;2023-03-13T14:17:49;23.20;20.10
578;DHT22;275;48.492;9.214;2023-03-13T14:20:27;23.60;19.80
578;DHT22;275;48.492;9.214;2023-03-13T14:22:55;24.40;19.30
578;DHT22;275;48.492;9.214;2023-03-13T14:25:23;25.20;18.60
578;DHT22;275;48.492;9.214;2023-03-13T14:27:52;24.90;18.80
578;DHT22;275;48.492;9.214;2023-03-13T14:30:21;24.80;18.80
578;DHT22;275;48.492;9.214;2023-03-13T14:32:50;24.30;19.20
578;DHT22;275;48.492;9.214;2023-03-13T14:35:18;24.20;19.30
578;DHT22;275;48.492;9.214;2023-03-13T14:37:50;24.00;19.60
578;DHT22;275;48.492;9.214;2023-03-13T14:40:23;23.90;19.70
578;DHT22;275;48.492;9.214;2023-03-13T14:42:52;23.40;19.90
578;DHT22;275;48.492;9.214;2023-03-13T14:45:23;23.00;20.50
578;DHT22;275;48.492;9.214;2023-03-13T14:47:51;22.90;22.10
578;DHT22;275;48.492;9.214;2023-03-13T14:50:21;23.20;22.40
578;DHT22;275;48.492;9.214;2023-03-13T14:52:51;23.50;22.10
578;DHT22;275;48.492;9.214;2023-03-13T14:55:28;23.10;21.30
578;DHT22;275;48.492;9.214;2023-03-13T14:57:57;23.40;21.20
578;DHT22;275;48.492;9.214;2023-03-13T15:00:34;23.10;21.30
578;DHT22;275;48.492;9.214;2023-03-13T15:03:21;23.00;22.00
578;DHT22;275;48.492;9.214;2023-03-13T15:06:02;23.20;22.10
578;DHT22;275;48.492;9.214;2023-03-13T15:08:30;23.40;22.00
578;DHT22;275;48.492;9.214;2023-03-13T15:10:57;23.30;22.50
578;DHT22;275;48.492;9.214;2023-03-13T15:13:31;23.40;21.70
578;DHT22;275;48.492;9.214;2023-03-13T15:15:59;23.60;22.10
578;DHT22;275;48.492;9.214;2023-03-13T15:18:27;23.50;22.70
578;DHT22;275;48.492;9.214;2023-03-13T15:20:57;23.00;23.20
578;DHT22;275;48.492;9.214;2023-03-13T15:23:24;23.00;23.60
578;DHT22;275;48.492;9.214;2023-03-13T15:25:52;23.20;23.50
578;DHT22;275;48.492;9.214;2023-03-13T15:28:20;22.90;24.40
578;DHT22;275;48.492;9.214;2023-03-13T15:30:49;22.40;24.30
578;DHT22;275;48.492;9.214;2023-03-13T15:33:19;22.50;24.60
578;DHT22;275;48.492;9.214;2023-03-13T15:35:47;22.40;24.70
578;DHT22;275;48.492;9.214;2023-03-13T15:38:15;22.20;24.70
578;DHT22;275;48.492;9.214;2023-03-13T15:40:43;21.80;25.30
578;DHT22;275;48.492;9.214;2023-03-13T15:43:12;21.80;25.60
578;DHT22;275;48.492;9.214;2023-03-13T15:45:40;21.70;25.50
578;DHT22;275;48.492;9.214;2023-03-13T15:48:14;21.70;25.60
578;DHT22;275;48.492;9.214;2023-03-13T15:50:41;22.10;25.10
578;DHT22;275;48.492;9.214;2023-03-13T15:53:16;22.10;25.20
578;DHT22;275;48.492;9.214;2023-03-13T15:55:44;22.10;24.90
578;DHT22;275;48.492;9.214;2023-03-13T15:58:12;22.50;24.60
578;DHT22;275;48.492;9.214;2023-03-13T16:00:40;22.00;24.70
578;DHT22;275;48.492;9.214;2023-03-13T16:03:12;21.70;25.30
578;DHT22;275;48.492;9.214;2023-03-13T16:05:40;21.60;25.30
578;DHT22;275;48.492;9.214;2023-03-13T16:08:12;21.70;25.40
578;DHT22;275;48.492;9.214;2023-03-13T16:10:39;21.50;25.30
578;DHT22;275;48.492;9.214;2023-03-13T16:13:06;21.40;25.30
578;DHT22;275;48.492;9.214;2023-03-13T16:15:36;21.20;25.60
578;DHT22;275;48.492;9.214;2023-03-13T16:18:03;21.40;25.60
578;DHT22;275;48.492;9.214;2023-03-13T16:20:31;21.50;25.10
578;DHT22;275;48.492;9.214;2023-03-13T16:22:58;21.50;25.20
578;DHT22;275;48.492;9.214;2023-03-13T16:25:29;21.70;25.00
578;DHT22;275;48.492;9.214;2023-03-13T16:27:56;21.90;24.90
578;DHT22;275;48.492;9.214;2023-03-13T16:30:25;22.00;24.70
578;DHT22;275;48.492;9.214;2023-03-13T16:32:53;22.40;24.30
578;DHT22;275;48.492;9.214;2023-03-13T16:35:20;22.30;24.30
578;DHT22;275;48.492;9.214;2023-03-13T16:37:47;22.20;24.50
578;DHT22;275;48.492;9.214;2023-03-13T16:40:17;22.40;24.20
578;DHT22;275;48.492;9.214;2023-03-13T16:42:44;22.60;24.00
578;DHT22;275;48.492;9.214;2023-03-13T16:45:12;22.50;24.10
578;DHT22;275;48.492;9.214;2023-03-13T16:47:40;22.10;24.60
578;DHT22;275;48.492;9.214;2023-03-13T16:50:17;22.00;24.80
578;DHT22;275;48.492;9.214;2023-03-13T16:52:46;22.10;24.80
578;DHT22;275;48.492;9.214;2023-03-13T16:55:13;22.10;24.80
578;DHT22;275;48.492;9.214;2023-03-13T16:57:39;21.90;24.90
578;DHT22;275;48.492;9.214;2023-03-13T17:00:14;21.80;25.00
578;DHT22;275;48.492;9.214;2023-03-13T17:02:42;21.90;24.90